createdAt,value
2018-04-12T05:39:45.538Z,21.9
2018-04-12T05:40:35.900Z,22
2018-04-12T05:41:25.917Z,22
2018-04-12T05:42:16.253Z,21.9
2018-04-12T05:43:06.047Z,22
2018-04-12T05:43:56.117Z,22
2018-04-12T05:44:46.153Z,21.9
2018-04-12T05:45:35.747Z,22
2018-04-12T05:46:26.892Z,22
2018-04-12T05:47:16.634Z,21.9
2018-04-12T05:48:06.684Z,21.9
2018-04-12T05:48:56.739Z,22
2018-04-12T05:49:46.571Z,22
2018-04-12T05:50:36.596Z,22
2018-04-12T05:51:26.936Z,21.9
2018-04-12T05:52:16.728Z,21.9
2018-04-12T05:53:06.230Z,22
2018-04-12T05:53:56.844Z,21.9
2018-04-12T05:54:46.925Z,22
2018-04-12T05:55:36.980Z,22
2018-04-12T05:56:27.042Z,22
2018-04-12T05:57:17.387Z,22
2018-04-12T05:58:07.458Z,22
2018-04-12T05:58:57.505Z,22
2018-04-12T05:59:47.035Z,22
2018-04-12T06:00:37.082Z,22
2018-04-12T06:01:27.445Z,21.9
2018-04-12T06:02:17.508Z,21.9
2018-04-12T06:03:07.580Z,22
2018-04-12T06:03:57.866Z,22
2018-04-12T06:04:47.666Z,22
2018-04-12T06:05:37.740Z,22
2018-04-12T06:06:27.515Z,22
2018-04-12T06:07:18.123Z,22
2018-04-12T06:08:07.385Z,22
2018-04-12T06:08:58.254Z,22
2018-04-12T06:09:48.310Z,21.9
2018-04-12T06:10:38.367Z,22
2018-04-12T06:11:28.177Z,22
2018-04-12T06:12:18.494Z,22
2018-04-12T06:13:08.284Z,21.9
2018-04-12T06:13:58.685Z,22
2018-04-12T06:14:48.674Z,21.9
2018-04-12T06:15:38.214Z,22
2018-04-12T06:16:28.224Z,21.9
2018-04-12T06:17:18.886Z,22
2018-04-12T06:18:08.692Z,22
2018-04-12T06:18:58.720Z,21.9
2018-04-12T06:19:48.780Z,22
2018-04-12T06:20:38.581Z,21.9
2018-04-12T06:21:29.367Z,21.9
2018-04-12T06:22:19.246Z,21.9
2018-04-12T06:23:09.031Z,21.9
2018-04-12T06:23:59.384Z,22
2018-04-12T06:24:49.422Z,22
2018-04-12T06:25:38.939Z,22
2018-04-12T06:26:29.302Z,21.9
2018-04-12T06:27:19.639Z,22
2018-04-12T06:28:09.391Z,21.9
2018-04-12T06:28:59.197Z,22
2018-04-12T06:29:49.260Z,21.9
2018-04-12T06:30:39.897Z,22
2018-04-12T06:31:29.958Z,23.4
2018-04-12T06:32:19.732Z,35.6
2018-04-12T06:33:09.515Z,45.1
2018-04-12T06:33:59.854Z,46.9
2018-04-12T06:34:50.208Z,46.6
2018-04-12T06:35:39.421Z,46.2
2018-04-12T06:36:30.338Z,45.4
2018-04-12T06:37:20.106Z,44.4
2018-04-12T06:38:10.181Z,43.6
2018-04-12T06:38:59.938Z,43.1
2018-04-12T06:39:50.853Z,42.6
2018-04-12T06:40:40.335Z,42.1
2018-04-12T06:41:30.695Z,41.6
2018-04-12T06:42:20.241Z,41.2
2018-04-12T06:43:10.573Z,40.8
2018-04-12T06:44:00.887Z,40.3
2018-04-12T06:44:50.158Z,39.9
2018-04-12T06:45:40.988Z,39.5
2018-04-12T06:46:30.780Z,39.1
2018-04-12T06:47:20.848Z,38.8
2018-04-12T06:48:10.641Z,40.9
2018-04-12T06:49:01.246Z,42.7
2018-04-12T06:49:51.054Z,48.1
2018-04-12T06:50:41.401Z,50.2
2018-04-12T06:51:31.473Z,48.6
2018-04-12T06:52:21.236Z,47.2
2018-04-12T06:53:11.029Z,46.4
2018-04-12T06:54:01.751Z,45.7
2018-04-12T06:54:51.419Z,45.1
2018-04-12T06:55:41.476Z,44.7
2018-04-12T06:56:30.973Z,44.3
2018-04-12T06:57:21.609Z,43.8
2018-04-12T06:58:11.941Z,43.3
2018-04-12T06:59:02.040Z,42.8
2018-04-12T06:59:51.797Z,43.3
2018-04-12T07:00:42.150Z,43.9
2018-04-12T07:01:31.924Z,48.6
2018-04-12T07:02:21.725Z,51.4
2018-04-12T07:03:12.067Z,51.3
2018-04-12T07:04:02.443Z,51.3
2018-04-12T07:04:52.185Z,51
2018-04-12T07:05:42.254Z,50.4
2018-04-12T07:06:32.586Z,49.7
2018-04-12T07:07:22.080Z,48.9
2018-04-12T07:08:12.711Z,48.6
2018-04-12T07:09:02.766Z,49.1
2018-04-12T07:09:52.576Z,49.9
2018-04-12T07:10:42.966Z,50.6
2018-04-12T07:11:32.441Z,51.3
2018-04-12T07:12:22.757Z,51.6
2018-04-12T07:13:12.281Z,51.8
2018-04-12T07:14:03.154Z,51.8
2018-04-12T07:14:52.964Z,51.8
2018-04-12T07:15:43.029Z,51.7
2018-04-12T07:16:33.338Z,51.7
2018-04-12T07:17:23.161Z,51.9
2018-04-12T07:18:13.251Z,52.1
2018-04-12T07:19:02.970Z,52.4
2018-04-12T07:19:53.356Z,52.8
2018-04-12T07:20:43.378Z,53
2018-04-12T07:21:32.896Z,53.3
2018-04-12T07:22:23.325Z,53.4
2018-04-12T07:23:13.346Z,53.5
2018-04-12T07:24:03.645Z,53.6
2018-04-12T07:24:52.447Z,53.8
2018-04-12T07:25:43.778Z,54
2018-04-12T07:26:34.097Z,54.1
2018-04-12T07:27:23.335Z,54.4
2018-04-12T07:28:13.690Z,54.6
2018-04-12T07:29:04.046Z,54.8
2018-04-12T07:29:54.371Z,55
2018-04-12T07:30:44.133Z,55.1
2018-04-12T07:31:34.494Z,55.3
2018-04-12T07:32:24.297Z,55.5
2018-04-12T07:33:14.640Z,55.6
2018-04-12T07:34:04.412Z,55.8
2018-04-12T07:34:54.469Z,56
2018-04-12T07:35:44.809Z,56.2
2018-04-12T07:36:34.602Z,56.4
2018-04-12T07:37:23.909Z,56.6
2018-04-12T07:38:14.177Z,56.7
2018-04-12T07:39:04.548Z,56.9
2018-04-12T07:39:55.140Z,57.1
2018-04-12T07:40:44.942Z,57.2
2018-04-12T07:41:35.042Z,57.4
2018-04-12T07:42:25.369Z,57.5
2018-04-12T07:43:15.131Z,57.7
2018-04-12T07:44:05.177Z,57.8
2018-04-12T07:44:55.519Z,58
2018-04-12T07:45:45.322Z,58.2
2018-04-12T07:46:35.384Z,58.3
2018-04-12T07:47:24.873Z,58.4
2018-04-12T07:48:15.782Z,58.6
2018-04-12T07:49:05.856Z,58.8
2018-04-12T07:49:55.655Z,58.9
2018-04-12T07:50:44.062Z,59.1
2018-04-12T07:51:35.491Z,59.2
2018-04-12T07:52:25.859Z,59.4
2018-04-12T07:53:16.171Z,59.6
2018-04-12T07:54:05.982Z,59.7
2018-04-12T07:54:55.839Z,59.8
2018-04-12T07:55:46.360Z,60
2018-04-12T07:56:36.447Z,60.1
2018-04-12T07:57:26.483Z,60.3
2018-04-12T07:58:16.581Z,60.4
2018-04-12T07:59:06.061Z,60.5
2018-04-12T07:59:56.149Z,60.6
2018-04-12T08:00:46.468Z,60.8
2018-04-12T08:01:36.542Z,60.9
2018-04-12T08:02:26.889Z,61.1
2018-04-12T08:03:16.946Z,61.3
2018-04-12T08:04:06.151Z,61.3
2018-04-12T08:04:56.800Z,61.4
2018-04-12T08:05:46.940Z,61.6
2018-04-12T08:06:36.912Z,61.7
2018-04-12T08:07:27.272Z,61.8
2018-04-12T08:08:17.314Z,61.9
2018-04-12T08:09:06.867Z,62.1
2018-04-12T08:09:57.157Z,62.2
2018-04-12T08:10:47.226Z,62.3
2018-04-12T08:11:37.599Z,62.4
2018-04-12T08:12:27.659Z,62.5
2018-04-12T08:13:17.147Z,62.6
2018-04-12T08:14:07.757Z,62.7
2018-04-12T08:14:57.563Z,62.8
2018-04-12T08:15:47.878Z,62.9
2018-04-12T08:16:37.674Z,63.1
2018-04-12T08:17:28.012Z,63.2
2018-04-12T08:18:18.075Z,63.3
2018-04-12T08:19:07.576Z,63.4
2018-04-12T08:19:57.922Z,63.5
2018-04-12T08:20:48.266Z,63.6
2018-04-12T08:21:37.819Z,63.8
2018-04-12T08:22:28.134Z,63.9
2018-04-12T08:23:18.512Z,64
2018-04-12T08:24:08.256Z,64.1
2018-04-12T08:24:58.611Z,64.2
2018-04-12T08:25:48.393Z,64.3
2018-04-12T08:26:38.524Z,64.4
2018-04-12T08:27:28.826Z,64.4
2018-04-12T08:28:17.815Z,64.6
2018-04-12T08:29:08.933Z,64.7
2018-04-12T08:29:58.979Z,64.8
2018-04-12T08:30:49.077Z,64.9
2018-04-12T08:31:39.123Z,65.1
2018-04-12T08:32:28.639Z,65.2
2018-04-12T08:33:18.989Z,65.3
2018-04-12T08:34:08.768Z,65.4
2018-04-12T08:34:59.076Z,65.5
2018-04-12T08:35:49.168Z,65.6
2018-04-12T08:36:39.508Z,65.8
2018-04-12T08:37:29.307Z,65.9
2018-04-12T08:38:19.101Z,65.9
2018-04-12T08:39:09.698Z,66.1
2018-04-12T08:39:59.503Z,66.2
2018-04-12T08:40:49.559Z,66.4
2018-04-12T08:41:39.625Z,66.5
2018-04-12T08:42:29.683Z,66.6
2018-04-12T08:43:20.046Z,66.7
2018-04-12T08:44:09.827Z,66.8
2018-04-12T08:44:59.596Z,66.9
2018-04-12T08:45:50.051Z,67
2018-04-12T08:46:39.707Z,67.1
2018-04-12T08:47:29.813Z,67.2
2018-04-12T08:48:20.144Z,67.3
2018-04-12T08:49:10.222Z,67.3
2018-04-12T08:50:00.525Z,67.4
2018-04-12T08:50:50.634Z,67.6
2018-04-12T08:51:40.111Z,67.7
2018-04-12T08:52:30.275Z,67.8
2018-04-12T08:53:20.541Z,67.8
2018-04-12T08:54:10.587Z,67.9
2018-04-12T08:55:00.650Z,68
2018-04-12T08:55:51.247Z,68.1
2018-04-12T08:56:40.786Z,68.2
2018-04-12T08:57:30.587Z,68.3
2018-04-12T08:58:21.166Z,68.6
2018-04-12T08:59:10.696Z,68.7
2018-04-12T09:00:01.347Z,68.4
2018-04-12T09:00:50.826Z,68.8
2018-04-12T09:01:41.188Z,68.9
2018-04-12T09:02:30.756Z,68.9
2018-04-12T09:03:21.565Z,69
2018-04-12T09:04:10.796Z,69.1
2018-04-12T09:05:01.711Z,69.1
2018-04-12T09:05:51.485Z,69.2
2018-04-12T09:06:41.570Z,69.3
2018-04-12T09:07:31.656Z,69.4
2018-04-12T09:08:21.731Z,69.5
2018-04-12T09:09:11.485Z,69.6
2018-04-12T09:10:02.123Z,69.7
2018-04-12T09:10:51.591Z,69.8
2018-04-12T09:11:42.245Z,69.8
2018-04-12T09:12:32.299Z,69.9
2018-04-12T09:13:21.807Z,69.9
2018-04-12T09:14:12.433Z,70
2018-04-12T09:15:02.210Z,70.1
2018-04-12T09:15:52.000Z,69.9
2018-04-12T09:16:42.625Z,70.1
2018-04-12T09:17:32.692Z,70.4
2018-04-12T09:18:22.758Z,70.4
2018-04-12T09:19:12.347Z,70.5
2018-04-12T09:20:02.043Z,70.5
2018-04-12T09:20:52.669Z,70.4
2018-04-12T09:21:42.717Z,70.6
2018-04-12T09:22:33.112Z,70.6
2018-04-12T09:23:22.832Z,70.6
2018-04-12T09:24:12.917Z,70.8
2018-04-12T09:25:02.994Z,70.8
2018-04-12T09:25:52.784Z,70.8
2018-04-12T09:26:43.375Z,70.9
2018-04-12T09:27:33.162Z,71
2018-04-12T09:28:23.247Z,70.9
2018-04-12T09:29:13.581Z,71.1
2018-04-12T09:30:03.377Z,71.2
2018-04-12T09:30:53.716Z,71
2018-04-12T09:31:43.836Z,71.1
2018-04-12T09:32:33.542Z,71.3
2018-04-12T09:33:23.816Z,71.1
2018-04-12T09:34:13.718Z,71.3
2018-04-12T09:35:04.042Z,71.4
2018-04-12T09:35:53.527Z,71.4
2018-04-12T09:36:43.639Z,71.4
2018-04-12T09:37:33.962Z,71.7
2018-04-12T09:38:24.313Z,71.7
2018-04-12T09:39:13.535Z,71.7
2018-04-12T09:40:04.156Z,71.9
2018-04-12T09:40:54.207Z,71.9
2018-04-12T09:41:44.290Z,71.8
2018-04-12T09:42:34.074Z,72
2018-04-12T09:43:24.407Z,72.1
2018-04-12T09:44:14.202Z,72
2018-04-12T09:45:04.847Z,72.2
2018-04-12T09:45:54.922Z,72.2
2018-04-12T09:46:44.972Z,72.2
2018-04-12T09:47:35.021Z,72.4
2018-04-12T09:48:24.524Z,72.4
2018-04-12T09:49:15.265Z,72.4
2018-04-12T09:50:05.231Z,72.7
2018-04-12T09:50:55.282Z,72.6
2018-04-12T09:51:45.059Z,72.7
2018-04-12T09:52:35.125Z,72.8
2018-04-12T09:53:25.484Z,72.6
2018-04-12T09:54:14.977Z,72.8
2018-04-12T09:55:05.334Z,72.8
2018-04-12T09:55:55.361Z,72.9
2018-04-12T09:56:45.434Z,73.1
2018-04-12T09:57:35.809Z,73.1
2018-04-12T09:58:25.282Z,73.2
2018-04-12T09:59:15.927Z,73.4
2018-04-12T10:00:06.373Z,73.3
2018-04-12T10:00:55.809Z,73.4
2018-04-12T10:01:45.571Z,73.4
2018-04-12T10:02:35.912Z,73.4
2018-04-12T10:03:25.696Z,73.6
2018-04-12T10:04:16.313Z,73.6
2018-04-12T10:05:06.130Z,73.6
2018-04-12T10:05:55.889Z,73.8
2018-04-12T10:06:46.523Z,73.7
2018-04-12T10:07:36.579Z,73.8
2018-04-12T10:08:26.065Z,73.9
2018-04-12T10:09:16.447Z,73.8
2018-04-12T10:10:06.501Z,73.9
2018-04-12T10:10:56.851Z,74.1
2018-04-12T10:11:46.321Z,73.9
2018-04-12T10:12:36.133Z,74.1
2018-04-12T10:13:27.068Z,74.1
2018-04-12T10:14:16.860Z,74.1
2018-04-12T10:15:07.139Z,74.3
2018-04-12T10:15:56.962Z,74.3
2018-04-12T10:16:47.006Z,74.1
2018-04-12T10:17:37.070Z,74.4
2018-04-12T10:18:27.460Z,74.4
2018-04-12T10:19:17.208Z,74.5
2018-04-12T10:20:07.248Z,74.6
2018-04-12T10:20:57.642Z,74.4
2018-04-12T10:21:47.678Z,74.6
2018-04-12T10:22:37.475Z,74.7
2018-04-12T10:23:27.529Z,74.7
2018-04-12T10:24:17.604Z,74.8
2018-04-12T10:25:07.932Z,74.9
2018-04-12T10:25:57.982Z,74.8
2018-04-12T10:26:47.787Z,75
2018-04-12T10:27:37.640Z,74.9
2018-04-12T10:28:27.432Z,74.8
2018-04-12T10:29:18.276Z,74.9
2018-04-12T10:30:08.310Z,75.1
2018-04-12T10:30:58.112Z,74.8
2018-04-12T10:31:48.168Z,74.9
2018-04-12T10:32:38.263Z,75.1
2018-04-12T10:33:28.335Z,74.9
2018-04-12T10:34:18.358Z,75.1
2018-04-12T10:35:08.764Z,75.3
2018-04-12T10:35:58.217Z,75.1
2018-04-12T10:36:48.284Z,75.1
2018-04-12T10:37:38.647Z,75.3
2018-04-12T10:38:28.963Z,75.3
2018-04-12T10:39:18.564Z,75.1
2018-04-12T10:40:08.548Z,75.3
2018-04-12T10:40:58.895Z,75.4
2018-04-12T10:41:49.159Z,75.2
2018-04-12T10:42:39.292Z,75.3
2018-04-12T10:43:29.107Z,75.4
2018-04-12T10:44:19.453Z,75.4
2018-04-12T10:45:09.491Z,75.2
2018-04-12T10:45:59.566Z,75.4
2018-04-12T10:46:49.315Z,75.6
2018-04-12T10:47:39.417Z,75.4
2018-04-12T10:48:29.733Z,75.4
2018-04-12T10:49:19.554Z,75.6
2018-04-12T10:50:09.319Z,75.6
2018-04-12T10:50:59.959Z,75.4
2018-04-12T10:51:49.733Z,75.4
2018-04-12T10:52:39.837Z,75.6
2018-04-12T10:53:30.135Z,75.5
2018-04-12T10:54:20.203Z,75.3
2018-04-12T10:55:10.303Z,75.5
2018-04-12T10:56:00.328Z,75.6
2018-04-12T10:56:50.140Z,75.4
2018-04-12T10:57:40.515Z,75.4
2018-04-12T10:58:30.265Z,75.6
2018-04-12T10:59:20.429Z,75.6
2018-04-12T11:00:10.664Z,75.4
2018-04-12T11:01:00.731Z,75.4
2018-04-12T11:01:50.257Z,75.6
2018-04-12T11:02:40.864Z,75.6
2018-04-12T11:03:31.169Z,75.4
2018-04-12T11:04:20.432Z,75.4
2018-04-12T11:05:10.503Z,75.6
2018-04-12T11:06:00.575Z,75.6
2018-04-12T11:06:51.168Z,75.4
2018-04-12T11:07:40.697Z,75.4
2018-04-12T11:08:31.039Z,75.5
2018-04-12T11:09:21.107Z,75.5
2018-04-12T11:10:10.897Z,75.5
2018-04-12T11:11:01.227Z,75.4
2018-04-12T11:11:51.325Z,75.4
2018-04-12T11:12:41.644Z,75.4
2018-04-12T11:13:31.723Z,75.3
2018-04-12T11:14:21.493Z,75.3
2018-04-12T11:15:11.589Z,75.3
2018-04-12T11:16:01.954Z,75.2
2018-04-12T11:16:51.431Z,75.1
2018-04-12T11:17:41.742Z,75.1
2018-04-12T11:18:32.995Z,75.1
2018-04-12T11:19:21.881Z,75
2018-04-12T11:20:12.223Z,75
2018-04-12T11:21:02.365Z,75
2018-04-12T11:21:52.086Z,74.9
2018-04-12T11:22:42.160Z,74.9
2018-04-12T11:23:32.158Z,74.9
2018-04-12T11:24:22.767Z,74.9
2018-04-12T11:25:12.620Z,74.8
2018-04-12T11:26:02.839Z,74.8
2018-04-12T11:26:51.990Z,74.8
2018-04-12T11:27:42.850Z,74.8
2018-04-12T11:28:32.064Z,74.7
2018-04-12T11:29:23.014Z,74.6
2018-04-12T11:30:13.012Z,74.6
2018-04-12T11:31:02.524Z,74.6
2018-04-12T11:31:53.140Z,74.4
2018-04-12T11:32:42.352Z,74.4
2018-04-12T11:33:32.433Z,74.1
2018-04-12T11:34:22.683Z,73.6
2018-04-12T11:35:13.514Z,73.9
2018-04-12T11:36:03.481Z,74.1
2018-04-12T11:36:53.079Z,74.4
2018-04-12T11:37:43.018Z,74.6
2018-04-12T11:38:33.665Z,74.6
2018-04-12T11:39:23.436Z,74.5
2018-04-12T11:40:13.804Z,74.4
2018-04-12T11:41:03.896Z,74.4
2018-04-12T11:41:53.371Z,74.3
2018-04-12T11:42:43.696Z,74.2
2018-04-12T11:43:33.760Z,74.3
2018-04-12T11:44:24.088Z,74.3
2018-04-12T11:45:13.726Z,74.4
2018-04-12T11:46:03.986Z,74.4
2018-04-12T11:46:54.484Z,74.4
2018-04-12T11:47:44.377Z,74.4
2018-04-12T11:48:33.973Z,74.4
2018-04-12T11:49:23.651Z,74.4
2018-04-12T11:50:14.561Z,74.4
2018-04-12T11:51:04.384Z,74.4
2018-04-12T11:51:54.701Z,74.4
2018-04-12T11:52:44.749Z,74.4
2018-04-12T11:53:34.852Z,74.3
2018-04-12T11:54:24.617Z,74.4
2018-04-12T11:55:14.788Z,74.3
2018-04-12T11:56:04.615Z,74.4
2018-04-12T11:56:54.836Z,74.4
2018-04-12T11:57:44.896Z,74.4
2018-04-12T11:58:35.221Z,74.4
2018-04-12T11:59:24.699Z,74.3
2018-04-12T12:00:15.116Z,74.3
2018-04-12T12:01:04.745Z,74.3
2018-04-12T12:01:55.240Z,74.2
2018-04-12T12:02:44.792Z,74.1
2018-04-12T12:03:35.647Z,74.1
2018-04-12T12:04:24.923Z,74.1
2018-04-12T12:05:15.183Z,74
2018-04-12T12:06:05.535Z,74
2018-04-12T12:06:55.844Z,73.9
2018-04-12T12:07:45.190Z,73.9
2018-04-12T12:08:35.722Z,73.8
2018-04-12T12:09:25.321Z,73.8
2018-04-12T12:10:16.144Z,73.7
2018-04-12T12:11:06.190Z,73.7
2018-04-12T12:11:55.995Z,73.6
2018-04-12T12:12:46.362Z,73.6
2018-04-12T12:13:36.124Z,73.5
2018-04-12T12:14:26.234Z,73.4
2018-04-12T12:15:16.536Z,73.4
2018-04-12T12:16:06.019Z,73.3
2018-04-12T12:16:56.641Z,73.3
2018-04-12T12:17:46.488Z,73.3
2018-04-12T12:18:36.523Z,73.1
2018-04-12T12:19:26.630Z,73.1
2018-04-12T12:20:16.663Z,73
2018-04-12T12:21:06.712Z,72.9
2018-04-12T12:21:57.059Z,72.8
2018-04-12T12:22:46.843Z,72.7
2018-04-12T12:23:37.172Z,72.6
2018-04-12T12:24:26.987Z,72.5
2018-04-12T12:25:17.287Z,72.4
2018-04-12T12:26:07.374Z,72.3
2018-04-12T12:26:57.446Z,72.3
2018-04-12T12:27:47.488Z,72.2
2018-04-12T12:28:37.055Z,72.1
2018-04-12T12:29:27.655Z,72.1
2018-04-12T12:30:17.412Z,72
2018-04-12T12:31:07.195Z,71.9
2018-04-12T12:31:57.530Z,71.9
2018-04-12T12:32:47.350Z,71.8
2018-04-12T12:33:37.682Z,71.7
2018-04-12T12:34:28.037Z,71.6
2018-04-12T12:35:18.099Z,71.6
2018-04-12T12:36:08.168Z,71.4
2018-04-12T12:36:58.219Z,71.4
2018-04-12T12:37:48.007Z,71.3
2018-04-12T12:38:38.089Z,71.3
2018-04-12T12:39:28.424Z,71.2
2018-04-12T12:40:18.498Z,71.1
2018-04-12T12:41:08.229Z,71.1
2018-04-12T12:41:58.054Z,71
2018-04-12T12:42:48.689Z,71
2018-04-12T12:43:38.741Z,70.9
2018-04-12T12:44:28.824Z,70.9
2018-04-12T12:45:18.325Z,70.8
2018-04-12T12:46:08.963Z,70.8
2018-04-12T12:46:59.013Z,70.7
2018-04-12T12:47:48.499Z,70.6
2018-04-12T12:48:37.993Z,70.6
2018-04-12T12:49:29.187Z,70.5
2018-04-12T12:50:18.999Z,70.4
2018-04-12T12:51:09.302Z,70.3
2018-04-12T12:51:59.393Z,70.2
2018-04-12T12:52:49.163Z,70.1
2018-04-12T12:53:38.955Z,70
2018-04-12T12:54:29.294Z,69.9
2018-04-12T12:55:19.092Z,69.8
2018-04-12T12:56:10.045Z,69.6
2018-04-12T12:56:58.911Z,69.6
2018-04-12T12:57:49.551Z,69.6
2018-04-12T12:58:39.896Z,69.4
2018-04-12T12:59:29.703Z,69.3
2018-04-12T13:00:20.053Z,69.2
2018-04-12T13:01:09.903Z,69.1
2018-04-12T13:02:00.138Z,68.9
2018-04-12T13:02:50.228Z,68.8
2018-04-12T13:03:39.565Z,68.8
2018-04-12T13:04:30.120Z,68.6
2018-04-12T13:05:20.409Z,68.5
2018-04-12T13:06:10.491Z,68.4
2018-04-12T13:07:00.274Z,68.3
2018-04-12T13:07:50.321Z,68.2
2018-04-12T13:08:40.110Z,68.1
2018-04-12T13:09:30.194Z,68.1
2018-04-12T13:10:20.526Z,68.1
2018-04-12T13:11:10.316Z,68.1
2018-04-12T13:12:00.659Z,68
2018-04-12T13:12:50.166Z,67.9
2018-04-12T13:13:40.521Z,67.8
2018-04-12T13:14:30.597Z,67.7
2018-04-12T13:15:21.205Z,67.6
2018-04-12T13:16:11.276Z,67.5
2018-04-12T13:17:01.034Z,67.4
2018-04-12T13:17:51.406Z,67.3
2018-04-12T13:18:41.458Z,67.3
2018-04-12T13:19:31.544Z,67.2
2018-04-12T13:20:21.328Z,67.1
2018-04-12T13:21:11.383Z,67.1
2018-04-12T13:22:01.167Z,66.9
2018-04-12T13:22:51.902Z,66.8
2018-04-12T13:23:41.582Z,66.6
2018-04-12T13:24:31.074Z,66.6
2018-04-12T13:25:21.957Z,66.5
2018-04-12T13:26:12.029Z,66.4
2018-04-12T13:27:01.530Z,66.3
2018-04-12T13:27:51.879Z,66.2
2018-04-12T13:28:42.254Z,66.1
2018-04-12T13:29:32.327Z,65.9
2018-04-12T13:30:22.362Z,65.8
2018-04-12T13:31:12.437Z,65.6
2018-04-12T13:32:01.911Z,65
2018-04-12T13:32:51.988Z,64.1
2018-04-12T13:33:42.620Z,63.1
2018-04-12T13:34:32.372Z,62.1
2018-04-12T13:35:22.764Z,61.1
2018-04-12T13:36:12.801Z,60.3
2018-04-12T13:37:02.897Z,59.4
2018-04-12T13:38:42.454Z,57.8
2018-04-12T13:39:32.824Z,57.1
2018-04-12T13:40:22.561Z,56.4
2018-04-12T13:41:12.655Z,55.6
2018-04-12T13:42:03.264Z,54.9
2018-04-12T13:42:53.057Z,54.3
2018-04-12T13:43:43.401Z,53.6
2018-04-12T13:44:33.204Z,53
2018-04-12T13:46:13.612Z,51.8
2018-04-12T13:47:03.128Z,51.2
2018-04-12T13:47:52.951Z,50.7
2018-04-12T13:48:43.499Z,50.1
2018-04-12T13:49:33.858Z,49.6
2018-04-12T13:50:23.623Z,49.1
2018-04-12T13:51:13.298Z,48.6
2018-04-12T13:52:03.529Z,48.1
2018-04-12T13:52:53.560Z,47.7
2018-04-12T13:53:44.184Z,47.2
2018-04-12T13:54:33.662Z,46.8
2018-04-12T13:55:23.247Z,46.4
2018-04-12T13:56:14.212Z,45.9
2018-04-12T13:57:04.266Z,45.6
2018-04-12T13:57:53.921Z,45.2
2018-04-12T13:58:43.710Z,44.8
2018-04-12T13:59:34.327Z,44.4
2018-04-12T14:00:24.702Z,44
2018-04-12T14:01:14.190Z,43.6
2018-04-12T14:02:03.989Z,43.3
2018-04-12T14:02:54.096Z,43
2018-04-12T14:03:44.929Z,42.7
2018-04-12T14:04:35.051Z,42.3
2018-04-12T14:05:24.523Z,42
2018-04-12T14:06:14.836Z,41.8
2018-04-12T14:07:05.197Z,41.4
2018-04-12T14:07:54.738Z,41.1
2018-04-12T14:08:45.126Z,40.9
2018-04-12T14:09:34.833Z,40.6
2018-04-12T14:10:25.433Z,40.3
2018-04-12T14:11:14.946Z,40
2018-04-12T14:12:05.584Z,39.8
2018-04-12T14:12:55.648Z,39.5
2018-04-12T14:13:45.449Z,39.3
2018-04-12T14:14:35.197Z,39
2018-04-12T14:15:25.855Z,38.8
2018-04-12T14:16:15.626Z,38.6
2018-04-12T14:17:05.690Z,38.4
2018-04-12T14:17:56.059Z,38.1
2018-04-12T14:18:46.175Z,37.9
2018-04-12T14:19:36.187Z,37.7
2018-04-12T14:20:25.954Z,37.5
2018-04-12T14:21:15.985Z,37.3
2018-04-12T14:22:05.792Z,37.1
2018-04-12T14:22:56.407Z,36.9
2018-04-12T14:23:46.469Z,36.8
2018-04-12T14:24:36.526Z,36.5
2018-04-12T14:25:26.159Z,36.4
2018-04-12T14:26:16.710Z,36.2
2018-04-12T14:27:06.819Z,36
2018-04-12T14:27:56.251Z,35.8
2018-04-12T14:28:45.717Z,35.7
2018-04-12T14:29:36.932Z,35.5
2018-04-12T14:30:27.005Z,35.4
2018-04-12T14:31:17.085Z,35.2
2018-04-12T14:32:06.571Z,35
2018-04-12T14:32:57.172Z,34.9
2018-04-12T14:33:46.959Z,34.7
2018-04-12T14:34:37.327Z,34.6
2018-04-12T14:35:27.394Z,34.4
2018-04-12T14:36:17.868Z,34.3
2018-04-12T14:37:07.504Z,34.1
2018-04-12T14:37:57.018Z,34
2018-04-12T14:38:47.347Z,33.9
2018-04-12T14:39:37.455Z,33.8
2018-04-12T14:40:27.181Z,33.7
2018-04-12T14:41:17.823Z,33.5
2018-04-12T14:42:07.647Z,33.4
2018-04-12T14:42:57.403Z,33.3
2018-04-12T14:43:48.000Z,33.1
2018-04-12T14:44:37.828Z,33.1
2018-04-12T14:45:27.848Z,32.9
2018-04-12T14:46:17.371Z,32.8
2018-04-12T14:47:08.308Z,32.7
2018-04-12T14:47:57.773Z,32.6
2018-04-12T14:48:47.550Z,32.5
2018-04-12T14:49:38.453Z,32.4
2018-04-12T14:50:28.238Z,32.3
2018-04-12T14:51:18.594Z,32.2
2018-04-12T14:52:08.654Z,32.1
2018-04-12T14:52:58.699Z,32
2018-04-12T14:53:47.649Z,31.9
2018-04-12T14:54:38.847Z,31.8
2018-04-12T14:55:28.634Z,31.7
2018-04-12T14:56:18.135Z,31.6
2018-04-12T14:57:08.819Z,31.5
2018-04-12T14:57:58.544Z,31.4
2018-04-12T14:58:48.605Z,31.4
2018-04-12T14:59:38.703Z,31.3
2018-04-12T15:00:29.295Z,31.2
2018-04-12T15:01:19.357Z,31.1
2018-04-12T15:02:09.457Z,31
2018-04-12T15:02:59.203Z,30.9
2018-04-12T15:03:49.028Z,30.9
2018-04-12T15:04:39.382Z,30.8
2018-04-12T15:05:29.673Z,30.7
2018-04-12T15:06:19.646Z,30.6
2018-04-12T15:07:09.245Z,30.6
2018-04-12T15:07:59.879Z,30.5
2018-04-12T15:08:49.682Z,30.4
2018-04-12T15:09:39.732Z,30.4
2018-04-12T15:10:30.067Z,30.3
2018-04-12T15:11:19.872Z,30.3
2018-04-12T15:12:09.631Z,30.1
2018-04-12T15:13:00.171Z,30.1
2018-04-12T15:13:50.062Z,30
2018-04-12T15:14:39.265Z,29.9
2018-04-12T15:15:30.161Z,29.9
2018-04-12T15:16:19.967Z,29.8
2018-04-12T15:17:10.317Z,29.8
2018-04-12T15:17:59.797Z,29.7
2018-04-12T15:18:50.477Z,29.7
2018-04-12T15:19:40.760Z,29.6
2018-04-12T15:20:30.594Z,29.5
2018-04-12T15:21:20.329Z,29.4
2018-04-12T15:22:10.497Z,29.4
2018-04-12T15:23:01.072Z,29.4
2018-04-12T15:23:50.529Z,29.3
2018-04-12T15:24:40.869Z,29.3
2018-04-12T15:25:30.664Z,29.2
2018-04-12T15:26:21.034Z,29.1
2018-04-12T15:27:10.880Z,29.1
2018-04-12T15:28:01.419Z,29.1
2018-04-12T15:28:50.895Z,29
2018-04-12T15:29:41.509Z,28.9
2018-04-12T15:30:31.598Z,28.9
2018-04-12T15:31:20.533Z,28.9
2018-04-12T15:32:12.005Z,28.8
2018-04-12T15:33:01.798Z,28.8
2018-04-12T15:33:51.585Z,28.7
2018-04-12T15:34:41.640Z,28.7
2018-04-12T15:35:31.403Z,28.6
2018-04-12T15:36:21.756Z,28.5
2018-04-12T15:37:11.828Z,28.5
2018-04-12T15:38:01.883Z,28.5
2018-04-12T15:38:52.003Z,28.4
2018-04-12T15:39:42.009Z,28.4
2018-04-12T15:40:32.352Z,28.4
2018-04-12T15:41:22.412Z,28.3
2018-04-12T15:42:12.210Z,28.3
2018-04-12T15:43:01.990Z,28.3
2018-04-12T15:43:52.337Z,28.2
2018-04-12T15:44:42.114Z,28.2
2018-04-12T15:45:32.720Z,28.1
2018-04-12T15:46:22.798Z,28.1
2018-04-12T15:47:12.888Z,28.1
2018-04-12T15:48:02.638Z,28
2018-04-12T15:48:52.975Z,27.9
2018-04-12T15:49:43.047Z,27.9
2018-04-12T15:50:32.850Z,27.9
2018-04-12T15:51:22.930Z,27.9
2018-04-12T15:54:42.897Z,27.8
2018-04-12T15:55:33.324Z,27.7
2018-04-12T15:56:23.000Z,27.7
2018-04-12T15:57:13.054Z,27.7
2018-04-12T15:58:03.432Z,27.6
2018-04-12T15:58:52.898Z,27.6
2018-04-12T15:59:43.824Z,27.6
2018-04-12T16:00:33.592Z,27.6
2018-04-12T16:01:23.466Z,27.5
2018-04-12T16:02:14.025Z,27.5
2018-04-12T16:03:04.087Z,27.4
2018-04-12T16:03:54.118Z,27.4
2018-04-12T16:04:43.609Z,27.4
2018-04-12T16:05:34.253Z,27.4
2018-04-12T16:06:24.319Z,27.4
2018-04-12T16:07:14.449Z,27.3
2018-04-12T16:08:04.468Z,27.3
2018-04-12T16:08:54.233Z,27.3
2018-04-12T16:09:44.590Z,27.3
2018-04-12T16:10:34.371Z,27.2
2018-04-12T16:11:24.723Z,27.2
2018-04-12T16:12:14.224Z,27.1
2018-04-12T16:13:04.856Z,27.1
2018-04-12T16:13:54.593Z,27.1
2018-04-12T16:14:44.690Z,27.1
2018-04-12T16:15:34.470Z,27.1
2018-04-12T16:16:25.075Z,27.1
2018-04-12T16:17:14.602Z,27
2018-04-12T16:18:04.943Z,27
2018-04-12T16:18:54.993Z,26.9
2018-04-12T16:19:45.366Z,26.9
2018-04-12T16:20:35.403Z,26.9
2018-04-12T16:21:25.500Z,26.9
2018-04-12T16:22:14.952Z,26.9
2018-04-12T16:23:05.327Z,26.9
2018-04-12T16:23:55.673Z,26.8
2018-04-12T16:24:45.417Z,26.8
2018-04-12T16:25:35.808Z,26.8
2018-04-12T16:26:25.299Z,26.8
2018-04-12T16:27:15.653Z,26.8
2018-04-12T16:28:05.688Z,26.8
2018-04-12T16:28:56.051Z,26.8
2018-04-12T16:29:45.845Z,26.7
2018-04-12T16:30:35.875Z,26.6
2018-04-12T16:31:25.693Z,26.6
2018-04-12T16:32:16.005Z,26.6
2018-04-12T16:33:06.342Z,26.6
2018-04-12T16:33:55.858Z,26.6
2018-04-12T16:34:46.220Z,26.6
2018-04-12T16:35:36.580Z,26.6
2018-04-12T16:36:26.121Z,26.6
2018-04-12T16:37:16.122Z,26.5
2018-04-12T16:38:06.747Z,26.5
2018-04-12T16:38:56.839Z,26.5
2018-04-12T16:39:46.844Z,26.4
2018-04-12T16:40:36.651Z,26.4
2018-04-12T16:41:27.060Z,26.4
2018-04-12T16:42:17.029Z,26.4
2018-04-12T16:43:07.115Z,26.4
2018-04-12T16:43:57.212Z,26.4
2018-04-12T16:44:46.944Z,26.4
2018-04-12T16:45:37.040Z,26.3
2018-04-12T16:46:27.375Z,26.3
2018-04-12T16:47:16.877Z,26.3
2018-04-12T16:48:07.511Z,26.3
2018-04-12T16:48:57.573Z,26.3
2018-04-12T16:49:47.605Z,26.3
2018-04-12T16:50:37.106Z,26.3
2018-04-12T16:51:27.739Z,26.2
2018-04-12T16:52:17.859Z,26.2
2018-04-12T16:53:07.579Z,26.2
2018-04-12T16:53:57.365Z,26.2
2018-04-12T16:54:47.967Z,26.2